sensor_id;sensor_type;location;lat;lon;timestamp;pressure;altitude;pressure_sealevel;temperature;humidity
6134;BME280;3098;42.678;23.364;2024-01-07T00:00:30;93529.91;;;7.16;100.00
6134;BME280;3098;42.678;23.364;2024-01-07T00:02:57;93531.22;;;7.30;100.00
6134;BME280;3098;42.678;23.364;2024-01-07T00:05:26;93359.78;;;6.27;100.00
6134;BME280;3098;42.678;23.364;2024-01-07T00:07:54;93405.19;;;6.45;100.00
6134;BME280;3098;42.678;23.364;2024-01-07T00:10:21;93416.09;;;6.34;100.00
6134;BME280;3098;42.678;23.364;2024-01-07T00:12:49;93189.56;;;5.14;100.00
6134;BME280;3098;42.678;23.364;2024-01-07T00:15:19;93487.97;;;7.02;100.00
6134;BME280;3098;42.678;23.364;2024-01-07T00:17:47;93334.78;;;6.04;100.00
6134;BME280;3098;42.678;23.364;2024-01-07T00:20:16;93505.88;;;7.17;100.00
6134;BME280;3098;42.678;23.364;2024-01-07T00:22:49;93314.31;;;6.09;100.00
6134;BME280;3098;42.678;23.364;2024-01-07T00:25:19;93255.03;;;5.74;100.00
6134;BME280;3098;42.678;23.364;2024-01-07T00:27:49;93270.09;;;5.56;100.00
6134;BME280;3098;42.678;23.364;2024-01-07T00:30:18;93343.97;;;5.89;100.00
6134;BME280;3098;42.678;23.364;2024-01-07T00:32:46;93108.41;;;4.28;100.00
6134;BME280;3098;42.678;23.364;2024-01-07T00:35:17;93472.91;;;6.73;100.00
6134;BME280;3098;42.678;23.364;2024-01-07T00:37:46;93461.47;;;6.31;100.00
6134;BME280;3098;42.678;23.364;2024-01-07T00:40:13;93386.13;;;5.63;100.00
6134;BME280;3098;42.678;23.364;2024-01-07T00:42:41;93442.22;;;5.93;100.00
6134;BME280;3098;42.678;23.364;2024-01-07T00:45:10;93455.72;;;5.92;100.00
6134;BME280;3098;42.678;23.364;2024-01-07T00:47:39;93230.63;;;4.12;100.00
6134;BME280;3098;42.678;23.364;2024-01-07T00:50:06;93418.31;;;5.43;100.00
6134;BME280;3098;42.678;23.364;2024-01-07T00:52:34;93311.09;;;4.59;100.00
6134;BME280;3098;42.678;23.364;2024-01-07T00:55:05;93092.19;;;3.15;100.00
6134;BME280;3098;42.678;23.364;2024-01-07T00:57:34;93425.25;;;5.56;100.00
6134;BME280;3098;42.678;23.364;2024-01-07T01:00:05;93335.03;;;5.09;100.00
6134;BME280;3098;42.678;23.364;2024-01-07T01:02:32;93305.53;;;4.70;100.00
6134;BME280;3098;42.678;23.364;2024-01-07T01:04:59;93314.19;;;4.61;100.00
6134;BME280;3098;42.678;23.364;2024-01-07T01:07:27;93285.13;;;4.49;100.00
6134;BME280;3098;42.678;23.364;2024-01-07T01:09:54;93298.25;;;4.32;100.00
6134;BME280;3098;42.678;23.364;2024-01-07T01:12:23;93350.78;;;4.84;100.00
6134;BME280;3098;42.678;23.364;2024-01-07T01:14:51;93221.69;;;4.22;100.00
6134;BME280;3098;42.678;23.364;2024-01-07T01:17:19;93403.91;;;5.58;100.00
6134;BME280;3098;42.678;23.364;2024-01-07T01:19:47;93146.84;;;3.98;100.00
6134;BME280;3098;42.678;23.364;2024-01-07T01:22:14;93073.88;;;3.49;100.00
6134;BME280;3098;42.678;23.364;2024-01-07T01:24:42;93402.50;;;5.69;100.00
6134;BME280;3098;42.678;23.364;2024-01-07T01:27:11;93382.09;;;5.66;100.00
6134;BME280;3098;42.678;23.364;2024-01-07T01:29:42;93118.75;;;4.07;100.00
6134;BME280;3098;42.678;23.364;2024-01-07T01:32:11;93359.19;;;5.66;100.00
6134;BME280;3098;42.678;23.364;2024-01-07T01:34:40;93313.31;;;5.47;100.00
6134;BME280;3098;42.678;23.364;2024-01-07T01:37:08;93245.28;;;4.90;100.00
6134;BME280;3098;42.678;23.364;2024-01-07T01:39:39;93348.97;;;5.65;100.00
6134;BME280;3098;42.678;23.364;2024-01-07T01:42:07;93104.09;;;4.06;100.00
6134;BME280;3098;42.678;23.364;2024-01-07T01:44:34;93098.22;;;4.10;100.00
6134;BME280;3098;42.678;23.364;2024-01-07T01:47:05;93196.31;;;4.69;100.00
6134;BME280;3098;42.678;23.364;2024-01-07T01:49:32;92952.88;;;3.13;100.00
6134;BME280;3098;42.678;23.364;2024-01-07T01:52:01;93212.31;;;5.01;100.00
6134;BME280;3098;42.678;23.364;2024-01-07T01:54:28;93303.97;;;5.66;100.00
6134;BME280;3098;42.678;23.364;2024-01-07T01:56:57;93214.94;;;5.10;100.00
6134;BME280;3098;42.678;23.364;2024-01-07T01:59:25;93165.41;;;4.74;100.00
6134;BME280;3098;42.678;23.364;2024-01-07T02:01:52;93230.38;;;5.11;100.00
6134;BME280;3098;42.678;23.364;2024-01-07T02:04:22;93295.28;;;5.66;100.00
6134;BME280;3098;42.678;23.364;2024-01-07T02:06:48;93175.16;;;4.74;100.00
6134;BME280;3098;42.678;23.364;2024-01-07T02:09:16;93265.53;;;5.45;100.00
6134;BME280;3098;42.678;23.364;2024-01-07T02:11:43;93322.34;;;5.75;100.00
6134;BME280;3098;42.678;23.364;2024-01-07T02:14:10;92993.25;;;3.63;100.00
6134;BME280;3098;42.678;23.364;2024-01-07T02:16:38;93212.84;;;5.33;100.00
6134;BME280;3098;42.678;23.364;2024-01-07T02:19:06;93303.94;;;6.13;100.00
6134;BME280;3098;42.678;23.364;2024-01-07T02:21:37;93296.00;;;6.21;100.00
6134;BME280;3098;42.678;23.364;2024-01-07T02:24:07;93228.38;;;6.13;100.00
6134;BME280;3098;42.678;23.364;2024-01-07T02:26:41;93204.31;;;6.23;100.00
6134;BME280;3098;42.678;23.364;2024-01-07T02:29:09;93062.28;;;5.23;100.00
6134;BME280;3098;42.678;23.364;2024-01-07T02:31:36;93196.16;;;6.37;100.00
6134;BME280;3098;42.678;23.364;2024-01-07T02:34:03;93090.94;;;6.08;100.00
6134;BME280;3098;42.678;23.364;2024-01-07T02:36:30;93228.47;;;7.24;100.00
6134;BME280;3098;42.678;23.364;2024-01-07T02:38:58;92973.19;;;5.51;100.00
6134;BME280;3098;42.678;23.364;2024-01-07T02:41:27;93163.84;;;6.49;100.00
6134;BME280;3098;42.678;23.364;2024-01-07T02:43:54;93240.00;;;6.74;100.00
6134;BME280;3098;42.678;23.364;2024-01-07T02:46:23;92861.59;;;4.25;100.00
6134;BME280;3098;42.678;23.364;2024-01-07T02:48:51;93147.56;;;6.14;100.00
6134;BME280;3098;42.678;23.364;2024-01-07T02:51:18;93000.06;;;5.15;100.00
6134;BME280;3098;42.678;23.364;2024-01-07T02:53:47;93041.41;;;5.48;100.00
6134;BME280;3098;42.678;23.364;2024-01-07T02:56:14;93003.84;;;5.27;100.00
6134;BME280;3098;42.678;23.364;2024-01-07T02:58:42;93162.84;;;6.20;100.00
6134;BME280;3098;42.678;23.364;2024-01-07T03:01:11;93241.16;;;6.65;100.00
6134;BME280;3098;42.678;23.364;2024-01-07T03:03:39;93038.09;;;5.39;100.00
6134;BME280;3098;42.678;23.364;2024-01-07T03:06:06;93031.03;;;5.51;100.00
6134;BME280;3098;42.678;23.364;2024-01-07T03:08:34;93146.97;;;6.62;100.00
6134;BME280;3098;42.678;23.364;2024-01-07T03:11:04;93251.94;;;7.37;100.00
6134;BME280;3098;42.678;23.364;2024-01-07T03:13:33;93123.56;;;6.81;100.00
6134;BME280;3098;42.678;23.364;2024-01-07T03:16:03;93243.50;;;7.68;100.00
6134;BME280;3098;42.678;23.364;2024-01-07T03:18:31;93193.69;;;7.42;100.00
6134;BME280;3098;42.678;23.364;2024-01-07T03:20:58;93146.53;;;7.17;100.00
6134;BME280;3098;42.678;23.364;2024-01-07T03:23:26;93258.00;;;7.86;100.00
6134;BME280;3098;42.678;23.364;2024-01-07T03:25:54;93032.09;;;6.24;100.00
6134;BME280;3098;42.678;23.364;2024-01-07T03:28:21;93262.41;;;7.70;100.00
6134;BME280;3098;42.678;23.364;2024-01-07T03:30:49;93177.28;;;6.68;100.00
6134;BME280;3098;42.678;23.364;2024-01-07T03:33:17;92842.84;;;4.14;100.00
6134;BME280;3098;42.678;23.364;2024-01-07T03:35:44;93027.34;;;5.23;100.00
6134;BME280;3098;42.678;23.364;2024-01-07T03:38:12;93148.66;;;5.92;100.00
6134;BME280;3098;42.678;23.364;2024-01-07T03:40:40;93242.91;;;6.61;100.00
6134;BME280;3098;42.678;23.364;2024-01-07T03:43:07;93223.25;;;6.58;100.00
6134;BME280;3098;42.678;23.364;2024-01-07T03:45:34;93250.47;;;6.62;100.00
6134;BME280;3098;42.678;23.364;2024-01-07T03:48:02;93247.63;;;6.67;100.00
6134;BME280;3098;42.678;23.364;2024-01-07T03:50:31;92998.56;;;5.06;100.00
6134;BME280;3098;42.678;23.364;2024-01-07T03:52:57;93220.91;;;6.57;100.00
6134;BME280;3098;42.678;23.364;2024-01-07T03:55:24;93069.81;;;5.54;100.00
6134;BME280;3098;42.678;23.364;2024-01-07T03:57:52;93038.00;;;5.27;100.00
6134;BME280;3098;42.678;23.364;2024-01-07T04:00:19;93245.78;;;6.68;100.00
6134;BME280;3098;42.678;23.364;2024-01-07T04:02:46;93247.63;;;6.67;100.00
6134;BME280;3098;42.678;23.364;2024-01-07T04:05:14;93240.75;;;6.75;100.00
6134;BME280;3098;42.678;23.364;2024-01-07T04:07:42;93119.38;;;6.14;100.00
6134;BME280;3098;42.678;23.364;2024-01-07T04:10:10;93132.59;;;6.26;100.00
6134;BME280;3098;42.678;23.364;2024-01-07T04:12:38;93154.84;;;6.50;100.00
6134;BME280;3098;42.678;23.364;2024-01-07T04:15:06;93224.38;;;7.02;100.00
6134;BME280;3098;42.678;23.364;2024-01-07T04:17:33;93193.44;;;6.78;100.00
6134;BME280;3098;42.678;23.364;2024-01-07T04:20:01;93070.53;;;5.84;100.00
6134;BME280;3098;42.678;23.364;2024-01-07T04:22:28;93160.56;;;6.52;100.00
6134;BME280;3098;42.678;23.364;2024-01-07T04:24:57;93227.22;;;6.97;100.00
6134;BME280;3098;42.678;23.364;2024-01-07T04:27:25;93082.19;;;6.16;100.00
6134;BME280;3098;42.678;23.364;2024-01-07T04:29:54;93210.88;;;7.04;100.00
6134;BME280;3098;42.678;23.364;2024-01-07T04:32:21;93112.03;;;6.41;100.00
6134;BME280;3098;42.678;23.364;2024-01-07T04:34:47;93208.13;;;7.00;100.00
6134;BME280;3098;42.678;23.364;2024-01-07T04:37:16;93216.03;;;7.00;100.00
6134;BME280;3098;42.678;23.364;2024-01-07T04:39:43;93064.81;;;6.03;100.00
6134;BME280;3098;42.678;23.364;2024-01-07T04:42:11;93202.28;;;6.94;100.00
6134;BME280;3098;42.678;23.364;2024-01-07T04:44:39;93215.78;;;6.93;100.00
6134;BME280;3098;42.678;23.364;2024-01-07T04:47:27;93092.41;;;6.17;100.00
6134;BME280;3098;42.678;23.364;2024-01-07T04:49:55;93199.97;;;6.93;100.00
6134;BME280;3098;42.678;23.364;2024-01-07T04:52:23;93197.75;;;6.83;100.00
6134;BME280;3098;42.678;23.364;2024-01-07T04:54:51;93210.03;;;6.79;100.00
6134;BME280;3098;42.678;23.364;2024-01-07T04:57:20;93176.31;;;6.40;100.00
6134;BME280;3098;42.678;23.364;2024-01-07T04:59:48;93245.63;;;6.64;100.00
6134;BME280;3098;42.678;23.364;2024-01-07T05:02:15;93232.09;;;6.33;100.00
6134;BME280;3098;42.678;23.364;2024-01-07T05:04:42;93159.69;;;5.86;100.00
6134;BME280;3098;42.678;23.364;2024-01-07T05:07:09;93198.47;;;6.18;100.00
6134;BME280;3098;42.678;23.364;2024-01-07T05:09:37;93216.84;;;6.26;100.00
6134;BME280;3098;42.678;23.364;2024-01-07T05:12:04;93196.19;;;6.08;100.00
6134;BME280;3098;42.678;23.364;2024-01-07T05:14:33;93188.38;;;5.99;100.00
6134;BME280;3098;42.678;23.364;2024-01-07T05:17:00;93190.00;;;6.12;100.00
6134;BME280;3098;42.678;23.364;2024-01-07T05:19:27;93190.31;;;6.11;100.00
6134;BME280;3098;42.678;23.364;2024-01-07T05:21:55;93210.28;;;6.12;100.00
6134;BME280;3098;42.678;23.364;2024-01-07T05:24:22;93139.28;;;5.53;100.00
6134;BME280;3098;42.678;23.364;2024-01-07T05:26:49;93233.63;;;6.13;100.00
6134;BME280;3098;42.678;23.364;2024-01-07T05:29:17;93180.88;;;5.80;100.00
6134;BME280;3098;42.678;23.364;2024-01-07T05:31:45;93234.84;;;6.16;100.00
6134;BME280;3098;42.678;23.364;2024-01-07T05:34:13;93221.56;;;6.12;100.00
6134;BME280;3098;42.678;23.364;2024-01-07T05:36:40;93220.16;;;6.15;100.00
6134;BME280;3098;42.678;23.364;2024-01-07T05:39:08;93220.25;;;6.27;100.00
6134;BME280;3098;42.678;23.364;2024-01-07T05:41:36;93222.88;;;6.27;100.00
6134;BME280;3098;42.678;23.364;2024-01-07T05:44:07;93218.06;;;6.29;100.00
6134;BME280;3098;42.678;23.364;2024-01-07T05:46:34;93151.59;;;5.91;100.00
6134;BME280;3098;42.678;23.364;2024-01-07T05:49:07;93215.84;;;6.31;100.00
6134;BME280;3098;42.678;23.364;2024-01-07T05:51:38;93140.31;;;5.61;100.00
6134;BME280;3098;42.678;23.364;2024-01-07T05:54:05;93219.91;;;6.28;100.00
6134;BME280;3098;42.678;23.364;2024-01-07T05:56:38;93161.66;;;5.89;100.00
6134;BME280;3098;42.678;23.364;2024-01-07T05:59:06;93244.81;;;6.31;100.00
6134;BME280;3098;42.678;23.364;2024-01-07T06:01:33;93247.72;;;6.17;100.00
6134;BME280;3098;42.678;23.364;2024-01-07T06:04:01;93142.09;;;5.48;100.00
6134;BME280;3098;42.678;23.364;2024-01-07T06:06:29;93234.47;;;6.26;100.00
6134;BME280;3098;42.678;23.364;2024-01-07T06:08:57;93195.75;;;6.06;100.00
6134;BME280;3098;42.678;23.364;2024-01-07T06:11:24;93222.53;;;6.28;100.00
6134;BME280;3098;42.678;23.364;2024-01-07T06:13:52;93222.09;;;6.26;100.00
6134;BME280;3098;42.678;23.364;2024-01-07T06:16:19;93218.06;;;6.29;100.00
6134;BME280;3098;42.678;23.364;2024-01-07T06:18:46;93213.28;;;6.22;100.00
6134;BME280;3098;42.678;23.364;2024-01-07T06:21:14;93113.69;;;5.62;100.00
6134;BME280;3098;42.678;23.364;2024-01-07T06:23:45;93224.34;;;6.36;100.00
6134;BME280;3098;42.678;23.364;2024-01-07T06:26:13;93054.56;;;5.27;100.00
6134;BME280;3098;42.678;23.364;2024-01-07T06:28:42;93224.59;;;6.44;100.00
6134;BME280;3098;42.678;23.364;2024-01-07T06:31:11;93228.97;;;6.40;100.00
6134;BME280;3098;42.678;23.364;2024-01-07T06:33:38;93121.91;;;5.61;100.00
6134;BME280;3098;42.678;23.364;2024-01-07T06:36:06;93231.34;;;6.32;100.00
6134;BME280;3098;42.678;23.364;2024-01-07T06:38:33;93246.03;;;6.33;100.00
6134;BME280;3098;42.678;23.364;2024-01-07T06:41:03;93245.19;;;6.42;100.00
6134;BME280;3098;42.678;23.364;2024-01-07T06:43:31;93237.56;;;6.49;100.00
6134;BME280;3098;42.678;23.364;2024-01-07T06:45:59;93206.75;;;6.28;100.00
6134;BME280;3098;42.678;23.364;2024-01-07T06:48:26;93208.47;;;6.24;100.00
6134;BME280;3098;42.678;23.364;2024-01-07T06:50:53;93192.28;;;5.93;100.00
6134;BME280;3098;42.678;23.364;2024-01-07T06:53:20;93273.78;;;6.52;100.00
6134;BME280;3098;42.678;23.364;2024-01-07T06:55:48;93117.09;;;5.63;100.00
6134;BME280;3098;42.678;23.364;2024-01-07T06:58:18;93255.22;;;6.69;100.00
6134;BME280;3098;42.678;23.364;2024-01-07T07:00:46;93266.06;;;6.67;100.00
6134;BME280;3098;42.678;23.364;2024-01-07T07:03:13;93264.56;;;6.66;100.00
6134;BME280;3098;42.678;23.364;2024-01-07T07:05:40;92891.25;;;4.25;100.00
6134;BME280;3098;42.678;23.364;2024-01-07T07:08:08;93255.09;;;6.86;100.00
6134;BME280;3098;42.678;23.364;2024-01-07T07:10:35;93258.78;;;7.06;100.00
6134;BME280;3098;42.678;23.364;2024-01-07T07:13:03;93268.75;;;7.00;100.00
6134;BME280;3098;42.678;23.364;2024-01-07T07:15:33;93178.91;;;6.60;100.00
6134;BME280;3098;42.678;23.364;2024-01-07T07:18:00;93227.38;;;7.13;100.00
6134;BME280;3098;42.678;23.364;2024-01-07T07:20:27;93213.78;;;7.23;100.00
6134;BME280;3098;42.678;23.364;2024-01-07T07:22:54;93003.94;;;5.92;100.00
6134;BME280;3098;42.678;23.364;2024-01-07T07:25:21;93049.13;;;6.27;100.00
6134;BME280;3098;42.678;23.364;2024-01-07T07:27:49;93239.31;;;7.43;100.00
6134;BME280;3098;42.678;23.364;2024-01-07T07:30:17;93190.91;;;7.27;100.00
6134;BME280;3098;42.678;23.364;2024-01-07T07:32:48;93157.53;;;7.19;100.00
6134;BME280;3098;42.678;23.364;2024-01-07T07:35:15;93219.44;;;7.82;100.00
6134;BME280;3098;42.678;23.364;2024-01-07T07:37:42;93224.50;;;7.75;100.00
6134;BME280;3098;42.678;23.364;2024-01-07T07:40:11;93224.94;;;7.89;100.00
6134;BME280;3098;42.678;23.364;2024-01-07T07:42:39;93231.41;;;8.03;100.00
6134;BME280;3098;42.678;23.364;2024-01-07T07:45:07;93161.94;;;7.51;100.00
6134;BME280;3098;42.678;23.364;2024-01-07T07:47:34;93224.69;;;8.06;100.00
6134;BME280;3098;42.678;23.364;2024-01-07T07:50:03;93182.13;;;8.07;100.00
6134;BME280;3098;42.678;23.364;2024-01-07T07:52:31;93122.97;;;7.96;100.00
6134;BME280;3098;42.678;23.364;2024-01-07T07:54:58;93112.06;;;7.98;100.00
6134;BME280;3098;42.678;23.364;2024-01-07T07:57:25;93190.66;;;9.12;100.00
6134;BME280;3098;42.678;23.364;2024-01-07T07:59:54;93192.41;;;9.51;100.00
6134;BME280;3098;42.678;23.364;2024-01-07T08:02:21;93079.94;;;8.95;100.00
6134;BME280;3098;42.678;23.364;2024-01-07T08:04:47;93169.41;;;9.71;100.00
6134;BME280;3098;42.678;23.364;2024-01-07T08:07:16;92963.41;;;8.53;100.00
6134;BME280;3098;42.678;23.364;2024-01-07T08:09:43;93092.03;;;9.43;100.00
6134;BME280;3098;42.678;23.364;2024-01-07T08:12:11;93151.47;;;9.96;100.00
6134;BME280;3098;42.678;23.364;2024-01-07T08:14:39;93143.22;;;9.81;100.00
6134;BME280;3098;42.678;23.364;2024-01-07T08:17:06;93138.78;;;9.70;100.00
6134;BME280;3098;42.678;23.364;2024-01-07T08:19:35;93146.06;;;9.57;100.00
6134;BME280;3098;42.678;23.364;2024-01-07T08:22:03;93074.31;;;8.81;100.00
6134;BME280;3098;42.678;23.364;2024-01-07T08:24:31;93152.53;;;9.60;100.00
6134;BME280;3098;42.678;23.364;2024-01-07T08:26:59;93078.91;;;9.15;100.00
6134;BME280;3098;42.678;23.364;2024-01-07T08:29:29;93140.78;;;9.42;100.00
6134;BME280;3098;42.678;23.364;2024-01-07T08:31:57;93011.06;;;8.56;100.00
6134;BME280;3098;42.678;23.364;2024-01-07T08:34:24;93156.31;;;9.59;100.00
6134;BME280;3098;42.678;23.364;2024-01-07T08:36:52;93014.63;;;8.21;100.00
6134;BME280;3098;42.678;23.364;2024-01-07T08:39:20;93021.84;;;8.36;100.00
6134;BME280;3098;42.678;23.364;2024-01-07T08:41:50;93059.00;;;8.43;100.00
6134;BME280;3098;42.678;23.364;2024-01-07T08:44:18;92888.66;;;7.62;100.00
6134;BME280;3098;42.678;23.364;2024-01-07T08:46:54;93148.25;;;10.06;100.00
6134;BME280;3098;42.678;23.364;2024-01-07T08:49:30;93060.84;;;9.67;100.00
6134;BME280;3098;42.678;23.364;2024-01-07T08:52:06;93014.69;;;9.49;100.00
6134;BME280;3098;42.678;23.364;2024-01-07T08:54:53;93014.78;;;9.53;100.00
6134;BME280;3098;42.678;23.364;2024-01-07T08:57:23;93095.03;;;10.68;100.00
6134;BME280;3098;42.678;23.364;2024-01-07T08:59:53;93145.09;;;13.02;100.00
6134;BME280;3098;42.678;23.364;2024-01-07T09:02:32;93115.50;;;14.74;100.00
6134;BME280;3098;42.678;23.364;2024-01-07T09:05:02;92851.28;;;14.25;100.00
6134;BME280;3098;42.678;23.364;2024-01-07T09:07:31;92972.56;;;15.12;100.00
6134;BME280;3098;42.678;23.364;2024-01-07T09:10:02;93092.31;;;16.20;100.00
6134;BME280;3098;42.678;23.364;2024-01-07T09:12:37;93002.69;;;14.98;100.00
6134;BME280;3098;42.678;23.364;2024-01-07T09:15:05;92995.25;;;14.25;100.00
6134;BME280;3098;42.678;23.364;2024-01-07T09:17:35;93032.41;;;14.83;100.00
6134;BME280;3098;42.678;23.364;2024-01-07T09:20:04;93101.91;;;15.96;100.00
6134;BME280;3098;42.678;23.364;2024-01-07T09:22:36;93083.59;;;15.94;100.00
6134;BME280;3098;42.678;23.364;2024-01-07T09:25:06;92961.19;;;16.37;100.00
6134;BME280;3098;42.678;23.364;2024-01-07T09:27:34;93024.47;;;17.82;100.00
6134;BME280;3098;42.678;23.364;2024-01-07T09:30:06;92836.97;;;17.27;100.00
6134;BME280;3098;42.678;23.364;2024-01-07T09:32:36;92978.91;;;17.78;100.00
6134;BME280;3098;42.678;23.364;2024-01-07T09:35:04;92778.19;;;16.31;100.00
6134;BME280;3098;42.678;23.364;2024-01-07T09:37:33;93074.66;;;17.82;100.00
6134;BME280;3098;42.678;23.364;2024-01-07T09:40:01;92824.69;;;14.50;100.00
6134;BME280;3098;42.678;23.364;2024-01-07T09:42:30;93033.59;;;15.52;100.00
6134;BME280;3098;42.678;23.364;2024-01-07T09:44:59;93069.09;;;15.71;100.00
6134;BME280;3098;42.678;23.364;2024-01-07T09:47:29;93058.81;;;15.59;100.00
6134;BME280;3098;42.678;23.364;2024-01-07T09:49:56;93062.56;;;16.00;100.00
6134;BME280;3098;42.678;23.364;2024-01-07T09:52:25;93069.78;;;16.17;100.00
6134;BME280;3098;42.678;23.364;2024-01-07T09:54:58;93072.84;;;16.16;100.00
6134;BME280;3098;42.678;23.364;2024-01-07T09:57:26;93062.97;;;15.03;100.00
6134;BME280;3098;42.678;23.364;2024-01-07T09:59:53;93082.81;;;15.20;100.00
6134;BME280;3098;42.678;23.364;2024-01-07T10:02:21;93065.47;;;16.58;100.00
6134;BME280;3098;42.678;23.364;2024-01-07T10:04:50;93062.94;;;15.98;100.00
6134;BME280;3098;42.678;23.364;2024-01-07T10:07:17;93007.63;;;14.96;100.00
6134;BME280;3098;42.678;23.364;2024-01-07T10:09:45;93033.38;;;13.57;100.00
6134;BME280;3098;42.678;23.364;2024-01-07T10:12:12;93062.03;;;13.70;100.00
6134;BME280;3098;42.678;23.364;2024-01-07T10:14:40;92894.16;;;12.47;100.00
6134;BME280;3098;42.678;23.364;2024-01-07T10:17:17;93058.78;;;13.03;100.00
6134;BME280;3098;42.678;23.364;2024-01-07T10:19:46;93053.97;;;12.76;100.00
6134;BME280;3098;42.678;23.364;2024-01-07T10:22:16;92964.06;;;12.11;100.00
6134;BME280;3098;42.678;23.364;2024-01-07T10:24:43;93047.84;;;12.35;100.00
6134;BME280;3098;42.678;23.364;2024-01-07T10:27:12;93041.34;;;12.32;100.00
6134;BME280;3098;42.678;23.364;2024-01-07T10:29:39;92863.03;;;11.08;100.00
6134;BME280;3098;42.678;23.364;2024-01-07T10:32:07;93034.94;;;13.10;100.00
6134;BME280;3098;42.678;23.364;2024-01-07T10:34:35;93035.97;;;12.99;100.00
6134;BME280;3098;42.678;23.364;2024-01-07T10:37:03;92883.03;;;12.35;100.00
6134;BME280;3098;42.678;23.364;2024-01-07T10:39:33;92795.56;;;11.05;100.00
6134;BME280;3098;42.678;23.364;2024-01-07T10:42:01;93017.19;;;12.44;100.00
6134;BME280;3098;42.678;23.364;2024-01-07T10:44:30;93012.13;;;13.09;100.00
6134;BME280;3098;42.678;23.364;2024-01-07T10:46:58;93018.75;;;13.30;100.00
6134;BME280;3098;42.678;23.364;2024-01-07T10:49:27;92901.66;;;12.82;100.00
6134;BME280;3098;42.678;23.364;2024-01-07T10:52:03;93006.00;;;13.56;100.00
6134;BME280;3098;42.678;23.364;2024-01-07T10:54:33;93005.75;;;13.79;100.00
6134;BME280;3098;42.678;23.364;2024-01-07T10:57:09;93010.22;;;14.44;100.00
6134;BME280;3098;42.678;23.364;2024-01-07T10:59:41;92823.88;;;13.06;100.00
6134;BME280;3098;42.678;23.364;2024-01-07T11:02:11;92793.06;;;12.40;100.00
6134;BME280;3098;42.678;23.364;2024-01-07T11:04:43;92939.19;;;13.93;100.00
6134;BME280;3098;42.678;23.364;2024-01-07T11:07:18;93012.50;;;14.42;100.00
6134;BME280;3098;42.678;23.364;2024-01-07T11:09:54;93012.16;;;14.57;100.00
6134;BME280;3098;42.678;23.364;2024-01-07T11:12:23;92984.59;;;14.25;100.00
6134;BME280;3098;42.678;23.364;2024-01-07T11:14:50;93038.28;;;14.13;100.00
6134;BME280;3098;42.678;23.364;2024-01-07T11:17:40;93015.84;;;14.28;100.00
6134;BME280;3098;42.678;23.364;2024-01-07T11:20:20;92904.81;;;13.67;100.00
6134;BME280;3098;42.678;23.364;2024-01-07T11:22:52;92935.41;;;12.71;100.00
6134;BME280;3098;42.678;23.364;2024-01-07T11:25:38;93025.50;;;13.16;100.00
6134;BME280;3098;42.678;23.364;2024-01-07T11:28:06;92835.69;;;12.03;100.00
6134;BME280;3098;42.678;23.364;2024-01-07T11:30:38;93008.53;;;13.39;100.00
6134;BME280;3098;42.678;23.364;2024-01-07T11:33:06;92821.19;;;12.99;100.00
6134;BME280;3098;42.678;23.364;2024-01-07T11:35:54;92953.22;;;13.83;100.00
6134;BME280;3098;42.678;23.364;2024-01-07T11:38:23;93003.00;;;13.68;100.00
6134;BME280;3098;42.678;23.364;2024-01-07T11:40:55;93006.41;;;13.07;100.00
6134;BME280;3098;42.678;23.364;2024-01-07T11:43:26;93016.53;;;12.95;100.00
6134;BME280;3098;42.678;23.364;2024-01-07T11:45:55;92895.94;;;12.80;100.00
6134;BME280;3098;42.678;23.364;2024-01-07T11:48:23;92787.72;;;11.49;100.00
6134;BME280;3098;42.678;23.364;2024-01-07T11:50:51;92734.22;;;11.10;100.00
6134;BME280;3098;42.678;23.364;2024-01-07T11:53:19;92939.66;;;12.02;100.00
6134;BME280;3098;42.678;23.364;2024-01-07T11:55:49;92770.59;;;11.10;100.00
6134;BME280;3098;42.678;23.364;2024-01-07T11:58:19;92790.38;;;11.49;100.00
6134;BME280;3098;42.678;23.364;2024-01-07T12:00:46;93015.25;;;12.78;100.00
6134;BME280;3098;42.678;23.364;2024-01-07T12:03:16;92899.66;;;11.58;100.00
6134;BME280;3098;42.678;23.364;2024-01-07T12:05:47;92979.47;;;11.98;100.00
6134;BME280;3098;42.678;23.364;2024-01-07T12:08:16;93004.47;;;12.27;100.00
6134;BME280;3098;42.678;23.364;2024-01-07T12:10:46;92935.97;;;11.77;100.00
6134;BME280;3098;42.678;23.364;2024-01-07T12:13:16;92993.81;;;11.90;100.00
6134;BME280;3098;42.678;23.364;2024-01-07T12:15:46;92886.81;;;11.30;100.00
6134;BME280;3098;42.678;23.364;2024-01-07T12:18:15;92916.31;;;11.55;100.00
6134;BME280;3098;42.678;23.364;2024-01-07T12:20:55;92928.00;;;11.77;100.00
6134;BME280;3098;42.678;23.364;2024-01-07T12:23:23;93009.59;;;12.09;100.00
6134;BME280;3098;42.678;23.364;2024-01-07T12:25:52;92804.19;;;10.69;100.00
6134;BME280;3098;42.678;23.364;2024-01-07T12:28:22;92670.19;;;9.63;100.00
6134;BME280;3098;42.678;23.364;2024-01-07T12:30:52;93021.13;;;11.91;100.00
6134;BME280;3098;42.678;23.364;2024-01-07T12:33:20;93015.00;;;11.87;100.00
6134;BME280;3098;42.678;23.364;2024-01-07T12:35:49;93021.00;;;11.54;100.00
6134;BME280;3098;42.678;23.364;2024-01-07T12:38:23;93025.94;;;11.55;100.00
6134;BME280;3098;42.678;23.364;2024-01-07T12:40:52;93000.38;;;11.44;100.00
6134;BME280;3098;42.678;23.364;2024-01-07T12:43:20;92871.41;;;10.57;100.00
6134;BME280;3098;42.678;23.364;2024-01-07T12:45:52;93023.06;;;11.41;100.00
6134;BME280;3098;42.678;23.364;2024-01-07T12:48:21;92943.94;;;10.94;100.00
6134;BME280;3098;42.678;23.364;2024-01-07T12:50:50;92929.66;;;11.03;100.00
6134;BME280;3098;42.678;23.364;2024-01-07T12:53:19;92775.94;;;10.05;100.00
6134;BME280;3098;42.678;23.364;2024-01-07T12:55:46;92888.38;;;10.75;100.00
6134;BME280;3098;42.678;23.364;2024-01-07T12:58:14;92885.28;;;10.73;100.00
6134;BME280;3098;42.678;23.364;2024-01-07T13:00:42;93030.72;;;11.69;100.00
6134;BME280;3098;42.678;23.364;2024-01-07T13:03:14;92788.22;;;9.90;100.00
6134;BME280;3098;42.678;23.364;2024-01-07T13:05:45;93030.00;;;11.46;100.00
6134;BME280;3098;42.678;23.364;2024-01-07T13:08:14;92804.50;;;9.92;100.00
6134;BME280;3098;42.678;23.364;2024-01-07T13:10:45;93037.25;;;11.49;100.00
6134;BME280;3098;42.678;23.364;2024-01-07T13:13:13;93036.56;;;11.55;100.00
6134;BME280;3098;42.678;23.364;2024-01-07T13:15:41;93045.59;;;11.51;100.00